RPLB METAR and TAF | Updated Today

RPLB METAR

Subic Bay International Airport

Observation time: 59 min. ago

RPLB 061900Z 13001KT 9999 FEW020 26/22 Q1011 NOSIG RMK A2985

Need help? Read our tutorial on how to read METARs or read the parsed version below.

Subic Bay International Airport (RPLB) METAR

  • Weather conditions on Thu, 06 Oct 2022 19:00:00 +0000 (59 min. ago):
  • Present conditions: Dry
  • Clouds: A few at 610 meters
  • Visibility: Greater than 10 km
  • Wind: 130 degrees at 1 knots
  • Temperature: 26 celsius
  • Dew point: 22 celsius
  • Pressure: 1011 millibars
  • Remarks: A2985


Useful to know...

RPLB TAF

Subic Bay International Airport

TAF RPLB 061700Z 0618/0718 07003KT 9999 FEW020 SCT300 TX33/0705Z TN24/0621Z TEMPO 0618/0624 08006KT FEW018CB FEW020
Observation time: 2:59 hr. ago
Need help? Read our tutorial on how to read TAFs or read the parsed version below.

Parsed version of TAF for Subic Bay International Airport (RPLB)

  • From 06 October at 18:00 UTC, to day 07 of the month at 18:00 UTC
  • Clouds: A few at 610 meters; scattered at 9144 meters
  • Visibility: Greater than 10 km
  • Wind: 70 degrees at 3
  • Expected to arise temporarily, from 06 October at 18:00 UTC, to day 06 of the month at 24:00 UTC
  • Clouds: A few at 549 meters, cumulonimbus; a few at 610 meters
  • Wind: 80 degrees at 6